sensor_id;sensor_type;location;lat;lon;timestamp;temperature;humidity
9399;DHT22;4739;49.334;8.792;2023-03-02T00:00:42;1.50;99.90
9399;DHT22;4739;49.334;8.792;2023-03-02T00:03:10;1.40;99.90
9399;DHT22;4739;49.334;8.792;2023-03-02T00:05:37;1.40;99.90
9399;DHT22;4739;49.334;8.792;2023-03-02T00:08:05;1.30;99.90
9399;DHT22;4739;49.334;8.792;2023-03-02T00:10:31;1.30;99.90
9399;DHT22;4739;49.334;8.792;2023-03-02T00:12:57;1.30;99.90
9399;DHT22;4739;49.334;8.792;2023-03-02T00:15:23;1.30;99.90
9399;DHT22;4739;49.334;8.792;2023-03-02T00:17:49;1.30;99.90
9399;DHT22;4739;49.334;8.792;2023-03-02T00:20:14;1.20;99.90
9399;DHT22;4739;49.334;8.792;2023-03-02T00:22:43;1.20;99.90
9399;DHT22;4739;49.334;8.792;2023-03-02T00:25:10;1.10;99.90
9399;DHT22;4739;49.334;8.792;2023-03-02T00:27:36;1.20;99.90
9399;DHT22;4739;49.334;8.792;2023-03-02T00:30:02;1.20;99.90
9399;DHT22;4739;49.334;8.792;2023-03-02T00:32:28;1.20;99.90
9399;DHT22;4739;49.334;8.792;2023-03-02T00:34:54;1.10;99.90
9399;DHT22;4739;49.334;8.792;2023-03-02T00:37:19;1.10;99.90
9399;DHT22;4739;49.334;8.792;2023-03-02T00:39:45;1.10;99.90
9399;DHT22;4739;49.334;8.792;2023-03-02T00:42:11;1.20;99.90
9399;DHT22;4739;49.334;8.792;2023-03-02T00:44:36;1.20;99.90
9399;DHT22;4739;49.334;8.792;2023-03-02T00:47:02;1.30;99.90
9399;DHT22;4739;49.334;8.792;2023-03-02T00:49:27;1.50;99.90
9399;DHT22;4739;49.334;8.792;2023-03-02T00:51:53;1.70;99.90
9399;DHT22;4739;49.334;8.792;2023-03-02T00:54:19;1.80;99.90
9399;DHT22;4739;49.334;8.792;2023-03-02T00:56:44;1.90;99.90
9399;DHT22;4739;49.334;8.792;2023-03-02T00:59:11;2.00;99.90
9399;DHT22;4739;49.334;8.792;2023-03-02T01:01:53;2.10;99.90
9399;DHT22;4739;49.334;8.792;2023-03-02T01:04:30;2.20;99.90
9399;DHT22;4739;49.334;8.792;2023-03-02T01:06:59;2.20;99.90
9399;DHT22;4739;49.334;8.792;2023-03-02T01:09:25;2.40;99.90
9399;DHT22;4739;49.334;8.792;2023-03-02T01:11:51;2.40;99.90
9399;DHT22;4739;49.334;8.792;2023-03-02T01:14:17;2.50;99.90
9399;DHT22;4739;49.334;8.792;2023-03-02T01:16:43;2.50;99.90
9399;DHT22;4739;49.334;8.792;2023-03-02T01:19:09;2.50;99.90
9399;DHT22;4739;49.334;8.792;2023-03-02T01:21:35;2.50;99.90
9399;DHT22;4739;49.334;8.792;2023-03-02T01:24:01;2.50;99.90
9399;DHT22;4739;49.334;8.792;2023-03-02T01:26:26;2.50;99.90
9399;DHT22;4739;49.334;8.792;2023-03-02T01:28:52;2.40;99.90
9399;DHT22;4739;49.334;8.792;2023-03-02T01:31:24;2.20;99.90
9399;DHT22;4739;49.334;8.792;2023-03-02T01:33:50;2.00;99.90
9399;DHT22;4739;49.334;8.792;2023-03-02T01:36:15;1.80;99.90
9399;DHT22;4739;49.334;8.792;2023-03-02T01:38:41;1.70;99.90
9399;DHT22;4739;49.334;8.792;2023-03-02T01:41:07;1.50;99.90
9399;DHT22;4739;49.334;8.792;2023-03-02T01:43:32;1.30;99.90
9399;DHT22;4739;49.334;8.792;2023-03-02T01:46:17;1.20;99.90
9399;DHT22;4739;49.334;8.792;2023-03-02T01:49:02;1.20;99.90
9399;DHT22;4739;49.334;8.792;2023-03-02T01:54:05;1.10;99.90
9399;DHT22;4739;49.334;8.792;2023-03-02T01:56:36;1.00;99.90
9399;DHT22;4739;49.334;8.792;2023-03-02T01:59:12;1.00;99.90
9399;DHT22;4739;49.334;8.792;2023-03-02T02:01:40;0.90;99.90
9399;DHT22;4739;49.334;8.792;2023-03-02T02:04:07;1.00;99.90
9399;DHT22;4739;49.334;8.792;2023-03-02T02:06:47;0.90;99.90
9399;DHT22;4739;49.334;8.792;2023-03-02T02:09:17;0.90;99.90
9399;DHT22;4739;49.334;8.792;2023-03-02T02:11:44;0.90;99.90
9399;DHT22;4739;49.334;8.792;2023-03-02T02:14:10;0.80;99.90
9399;DHT22;4739;49.334;8.792;2023-03-02T02:16:37;0.80;99.90
9399;DHT22;4739;49.334;8.792;2023-03-02T02:21:37;0.70;99.90
9399;DHT22;4739;49.334;8.792;2023-03-02T02:24:15;0.70;99.90
9399;DHT22;4739;49.334;8.792;2023-03-02T02:26:49;0.80;99.90
9399;DHT22;4739;49.334;8.792;2023-03-02T02:29:18;0.80;99.90
9399;DHT22;4739;49.334;8.792;2023-03-02T02:31:48;0.80;99.90
9399;DHT22;4739;49.334;8.792;2023-03-02T02:34:23;0.90;99.90
9399;DHT22;4739;49.334;8.792;2023-03-02T02:36:54;1.00;99.90
9399;DHT22;4739;49.334;8.792;2023-03-02T02:39:24;1.10;99.90
9399;DHT22;4739;49.334;8.792;2023-03-02T02:41:55;1.20;99.90
9399;DHT22;4739;49.334;8.792;2023-03-02T02:44:22;1.40;99.90
9399;DHT22;4739;49.334;8.792;2023-03-02T02:46:48;1.50;99.90
9399;DHT22;4739;49.334;8.792;2023-03-02T02:49:33;1.60;99.90
9399;DHT22;4739;49.334;8.792;2023-03-02T02:51:59;1.70;99.90
9399;DHT22;4739;49.334;8.792;2023-03-02T02:54:25;1.80;99.90
9399;DHT22;4739;49.334;8.792;2023-03-02T02:56:53;1.90;99.90
9399;DHT22;4739;49.334;8.792;2023-03-02T02:59:22;1.90;99.90
9399;DHT22;4739;49.334;8.792;2023-03-02T03:01:49;2.00;99.90
9399;DHT22;4739;49.334;8.792;2023-03-02T03:04:20;2.00;99.90
9399;DHT22;4739;49.334;8.792;2023-03-02T03:07:01;2.00;99.90
9399;DHT22;4739;49.334;8.792;2023-03-02T03:09:27;1.90;99.90
9399;DHT22;4739;49.334;8.792;2023-03-02T03:12:02;1.80;99.90
9399;DHT22;4739;49.334;8.792;2023-03-02T03:14:35;1.90;99.90
9399;DHT22;4739;49.334;8.792;2023-03-02T03:17:03;2.00;99.90
9399;DHT22;4739;49.334;8.792;2023-03-02T03:19:36;1.90;99.90
9399;DHT22;4739;49.334;8.792;2023-03-02T03:22:02;2.00;99.90
9399;DHT22;4739;49.334;8.792;2023-03-02T03:24:29;2.00;99.90
9399;DHT22;4739;49.334;8.792;2023-03-02T03:26:56;2.10;99.90
9399;DHT22;4739;49.334;8.792;2023-03-02T03:29:23;2.10;99.90
9399;DHT22;4739;49.334;8.792;2023-03-02T03:31:50;2.20;99.90
9399;DHT22;4739;49.334;8.792;2023-03-02T03:34:16;2.20;99.90
9399;DHT22;4739;49.334;8.792;2023-03-02T03:36:42;2.10;99.90
9399;DHT22;4739;49.334;8.792;2023-03-02T03:39:09;2.20;99.90
9399;DHT22;4739;49.334;8.792;2023-03-02T03:41:35;2.20;99.90
9399;DHT22;4739;49.334;8.792;2023-03-02T03:44:01;2.20;99.90
9399;DHT22;4739;49.334;8.792;2023-03-02T03:46:28;2.20;99.90
9399;DHT22;4739;49.334;8.792;2023-03-02T03:48:54;2.20;99.90
9399;DHT22;4739;49.334;8.792;2023-03-02T03:53:52;2.20;99.90
9399;DHT22;4739;49.334;8.792;2023-03-02T03:56:32;2.20;99.90
9399;DHT22;4739;49.334;8.792;2023-03-02T03:58:59;2.30;99.90
9399;DHT22;4739;49.334;8.792;2023-03-02T04:01:40;2.20;99.90
9399;DHT22;4739;49.334;8.792;2023-03-02T04:04:08;2.30;99.90
9399;DHT22;4739;49.334;8.792;2023-03-02T04:06:34;2.20;99.90
9399;DHT22;4739;49.334;8.792;2023-03-02T04:09:01;2.20;99.90
9399;DHT22;4739;49.334;8.792;2023-03-02T04:11:37;2.30;99.90
9399;DHT22;4739;49.334;8.792;2023-03-02T04:14:03;2.30;99.90
9399;DHT22;4739;49.334;8.792;2023-03-02T04:16:30;2.30;99.90
9399;DHT22;4739;49.334;8.792;2023-03-02T04:18:57;2.20;99.90
9399;DHT22;4739;49.334;8.792;2023-03-02T04:21:23;2.20;99.90
9399;DHT22;4739;49.334;8.792;2023-03-02T04:23:49;2.20;99.90
9399;DHT22;4739;49.334;8.792;2023-03-02T04:26:15;2.10;99.90
9399;DHT22;4739;49.334;8.792;2023-03-02T04:28:40;2.10;99.90
9399;DHT22;4739;49.334;8.792;2023-03-02T04:31:06;2.10;99.90
9399;DHT22;4739;49.334;8.792;2023-03-02T04:33:32;1.90;99.90
9399;DHT22;4739;49.334;8.792;2023-03-02T04:35:57;1.70;99.90
9399;DHT22;4739;49.334;8.792;2023-03-02T04:38:23;1.40;99.90
9399;DHT22;4739;49.334;8.792;2023-03-02T04:40:57;1.20;99.90
9399;DHT22;4739;49.334;8.792;2023-03-02T04:43:23;1.20;99.90
9399;DHT22;4739;49.334;8.792;2023-03-02T04:45:50;1.10;99.90
9399;DHT22;4739;49.334;8.792;2023-03-02T04:48:16;1.10;99.90
9399;DHT22;4739;49.334;8.792;2023-03-02T04:50:41;1.00;99.90
9399;DHT22;4739;49.334;8.792;2023-03-02T04:53:07;0.90;99.90
9399;DHT22;4739;49.334;8.792;2023-03-02T04:55:33;0.80;99.90
9399;DHT22;4739;49.334;8.792;2023-03-02T04:57:59;0.80;99.90
9399;DHT22;4739;49.334;8.792;2023-03-02T05:00:25;0.80;99.90
9399;DHT22;4739;49.334;8.792;2023-03-02T05:02:53;0.70;99.90
9399;DHT22;4739;49.334;8.792;2023-03-02T05:05:22;0.70;99.90
9399;DHT22;4739;49.334;8.792;2023-03-02T05:07:48;0.70;99.90
9399;DHT22;4739;49.334;8.792;2023-03-02T05:10:15;0.60;99.90
9399;DHT22;4739;49.334;8.792;2023-03-02T05:12:42;0.60;99.90
9399;DHT22;4739;49.334;8.792;2023-03-02T05:15:28;0.70;99.90
9399;DHT22;4739;49.334;8.792;2023-03-02T05:17:55;0.60;99.90
9399;DHT22;4739;49.334;8.792;2023-03-02T05:20:22;0.60;99.90
9399;DHT22;4739;49.334;8.792;2023-03-02T05:22:58;0.60;99.90
9399;DHT22;4739;49.334;8.792;2023-03-02T05:25:25;0.50;99.90
9399;DHT22;4739;49.334;8.792;2023-03-02T05:27:51;0.50;99.90
9399;DHT22;4739;49.334;8.792;2023-03-02T05:30:17;0.50;99.90
9399;DHT22;4739;49.334;8.792;2023-03-02T05:32:43;0.70;99.90
9399;DHT22;4739;49.334;8.792;2023-03-02T05:35:09;0.70;99.90
9399;DHT22;4739;49.334;8.792;2023-03-02T05:37:34;0.60;99.90
9399;DHT22;4739;49.334;8.792;2023-03-02T05:40:00;0.60;99.90
9399;DHT22;4739;49.334;8.792;2023-03-02T05:42:25;0.60;99.90
9399;DHT22;4739;49.334;8.792;2023-03-02T05:44:51;0.60;99.90
9399;DHT22;4739;49.334;8.792;2023-03-02T05:47:16;0.70;99.90
9399;DHT22;4739;49.334;8.792;2023-03-02T05:49:42;0.90;99.90
9399;DHT22;4739;49.334;8.792;2023-03-02T05:52:08;1.10;99.90
9399;DHT22;4739;49.334;8.792;2023-03-02T05:54:33;1.10;99.90
9399;DHT22;4739;49.334;8.792;2023-03-02T05:56:59;1.30;99.90
9399;DHT22;4739;49.334;8.792;2023-03-02T05:59:24;1.40;99.90
9399;DHT22;4739;49.334;8.792;2023-03-02T06:01:50;1.40;99.90
9399;DHT22;4739;49.334;8.792;2023-03-02T06:04:19;1.40;99.90
9399;DHT22;4739;49.334;8.792;2023-03-02T06:06:45;1.50;99.90
9399;DHT22;4739;49.334;8.792;2023-03-02T06:09:10;1.60;99.90
9399;DHT22;4739;49.334;8.792;2023-03-02T06:11:36;1.70;99.90
9399;DHT22;4739;49.334;8.792;2023-03-02T06:14:01;1.70;99.90
9399;DHT22;4739;49.334;8.792;2023-03-02T06:16:27;1.80;99.90
9399;DHT22;4739;49.334;8.792;2023-03-02T06:18:52;1.90;99.90
9399;DHT22;4739;49.334;8.792;2023-03-02T06:21:21;1.80;99.90
9399;DHT22;4739;49.334;8.792;2023-03-02T06:23:46;1.90;99.90
9399;DHT22;4739;49.334;8.792;2023-03-02T06:26:12;2.00;99.90
9399;DHT22;4739;49.334;8.792;2023-03-02T06:28:38;2.00;99.90
9399;DHT22;4739;49.334;8.792;2023-03-02T06:31:05;2.00;99.90
9399;DHT22;4739;49.334;8.792;2023-03-02T06:33:31;2.10;99.90
9399;DHT22;4739;49.334;8.792;2023-03-02T06:35:56;2.10;99.90
9399;DHT22;4739;49.334;8.792;2023-03-02T06:38:22;2.10;99.90
9399;DHT22;4739;49.334;8.792;2023-03-02T06:40:49;2.20;99.90
9399;DHT22;4739;49.334;8.792;2023-03-02T06:43:14;2.20;99.90
9399;DHT22;4739;49.334;8.792;2023-03-02T06:45:40;2.20;99.90
9399;DHT22;4739;49.334;8.792;2023-03-02T06:48:06;2.30;99.90
9399;DHT22;4739;49.334;8.792;2023-03-02T06:50:32;2.30;99.90
9399;DHT22;4739;49.334;8.792;2023-03-02T06:52:58;2.40;99.90
9399;DHT22;4739;49.334;8.792;2023-03-02T06:55:24;2.50;99.90
9399;DHT22;4739;49.334;8.792;2023-03-02T06:57:49;2.50;99.90
9399;DHT22;4739;49.334;8.792;2023-03-02T07:00:16;2.60;99.90
9399;DHT22;4739;49.334;8.792;2023-03-02T07:02:45;2.60;99.90
9399;DHT22;4739;49.334;8.792;2023-03-02T07:05:11;2.70;99.90
9399;DHT22;4739;49.334;8.792;2023-03-02T07:07:38;2.70;99.90
9399;DHT22;4739;49.334;8.792;2023-03-02T07:10:05;2.70;99.90
9399;DHT22;4739;49.334;8.792;2023-03-02T07:12:32;2.80;99.90
9399;DHT22;4739;49.334;8.792;2023-03-02T07:14:58;2.80;99.90
9399;DHT22;4739;49.334;8.792;2023-03-02T07:17:23;2.90;99.90
9399;DHT22;4739;49.334;8.792;2023-03-02T07:19:49;2.90;99.90
9399;DHT22;4739;49.334;8.792;2023-03-02T07:22:14;2.90;99.90
9399;DHT22;4739;49.334;8.792;2023-03-02T07:24:40;3.00;99.90
9399;DHT22;4739;49.334;8.792;2023-03-02T07:27:05;3.10;99.90
9399;DHT22;4739;49.334;8.792;2023-03-02T07:29:31;3.20;99.90
9399;DHT22;4739;49.334;8.792;2023-03-02T07:31:57;3.20;99.90
9399;DHT22;4739;49.334;8.792;2023-03-02T07:34:26;3.20;99.90
9399;DHT22;4739;49.334;8.792;2023-03-02T07:36:52;3.30;99.90
9399;DHT22;4739;49.334;8.792;2023-03-02T07:39:18;3.40;99.90
9399;DHT22;4739;49.334;8.792;2023-03-02T07:41:43;3.50;99.90
9399;DHT22;4739;49.334;8.792;2023-03-02T07:44:09;3.70;99.90
9399;DHT22;4739;49.334;8.792;2023-03-02T07:46:35;3.80;99.90
9399;DHT22;4739;49.334;8.792;2023-03-02T07:49:01;3.90;99.90
9399;DHT22;4739;49.334;8.792;2023-03-02T07:53:52;4.10;99.90
9399;DHT22;4739;49.334;8.792;2023-03-02T07:56:17;4.20;99.90
9399;DHT22;4739;49.334;8.792;2023-03-02T07:58:45;4.20;99.90
9399;DHT22;4739;49.334;8.792;2023-03-02T08:01:11;4.30;99.90
9399;DHT22;4739;49.334;8.792;2023-03-02T08:03:37;4.40;99.90
9399;DHT22;4739;49.334;8.792;2023-03-02T08:06:08;4.50;99.90
9399;DHT22;4739;49.334;8.792;2023-03-02T08:08:35;4.60;99.90
9399;DHT22;4739;49.334;8.792;2023-03-02T08:11:11;4.60;99.90
9399;DHT22;4739;49.334;8.792;2023-03-02T08:13:37;4.70;99.90
9399;DHT22;4739;49.334;8.792;2023-03-02T08:16:05;4.90;99.90
9399;DHT22;4739;49.334;8.792;2023-03-02T08:18:32;5.00;99.90
9399;DHT22;4739;49.334;8.792;2023-03-02T08:20:57;5.10;99.90
9399;DHT22;4739;49.334;8.792;2023-03-02T08:23:23;5.10;99.90
9399;DHT22;4739;49.334;8.792;2023-03-02T08:25:50;5.20;99.90
9399;DHT22;4739;49.334;8.792;2023-03-02T08:28:16;5.30;99.90
9399;DHT22;4739;49.334;8.792;2023-03-02T08:30:41;5.40;99.90
9399;DHT22;4739;49.334;8.792;2023-03-02T08:33:07;5.50;99.90
9399;DHT22;4739;49.334;8.792;2023-03-02T08:35:32;5.60;99.90
9399;DHT22;4739;49.334;8.792;2023-03-02T08:37:58;5.70;99.90
9399;DHT22;4739;49.334;8.792;2023-03-02T08:40:24;5.80;99.90
9399;DHT22;4739;49.334;8.792;2023-03-02T08:42:50;6.00;99.90
9399;DHT22;4739;49.334;8.792;2023-03-02T08:45:22;6.10;99.90
9399;DHT22;4739;49.334;8.792;2023-03-02T08:47:47;6.30;99.90
9399;DHT22;4739;49.334;8.792;2023-03-02T08:50:13;6.40;99.90
9399;DHT22;4739;49.334;8.792;2023-03-02T08:52:38;6.50;99.90
9399;DHT22;4739;49.334;8.792;2023-03-02T08:55:04;6.60;99.90
9399;DHT22;4739;49.334;8.792;2023-03-02T08:57:30;6.70;99.90
9399;DHT22;4739;49.334;8.792;2023-03-02T08:59:56;6.90;99.90
9399;DHT22;4739;49.334;8.792;2023-03-02T09:02:21;7.10;99.90
9399;DHT22;4739;49.334;8.792;2023-03-02T09:04:47;7.20;99.90
9399;DHT22;4739;49.334;8.792;2023-03-02T09:07:12;7.30;99.90
9399;DHT22;4739;49.334;8.792;2023-03-02T09:09:41;7.30;99.90
9399;DHT22;4739;49.334;8.792;2023-03-02T09:12:07;7.50;99.90
9399;DHT22;4739;49.334;8.792;2023-03-02T09:14:33;7.60;99.90
9399;DHT22;4739;49.334;8.792;2023-03-02T09:16:58;7.80;99.90
9399;DHT22;4739;49.334;8.792;2023-03-02T09:19:24;7.80;99.90
9399;DHT22;4739;49.334;8.792;2023-03-02T09:21:49;8.00;99.90
9399;DHT22;4739;49.334;8.792;2023-03-02T09:24:15;8.10;99.90
9399;DHT22;4739;49.334;8.792;2023-03-02T09:26:41;8.00;99.90
9399;DHT22;4739;49.334;8.792;2023-03-02T09:29:07;8.10;99.90
9399;DHT22;4739;49.334;8.792;2023-03-02T09:31:34;8.20;99.90
9399;DHT22;4739;49.334;8.792;2023-03-02T09:34:00;8.40;99.90
9399;DHT22;4739;49.334;8.792;2023-03-02T09:36:25;8.50;99.90
9399;DHT22;4739;49.334;8.792;2023-03-02T09:38:52;8.60;99.90
9399;DHT22;4739;49.334;8.792;2023-03-02T09:47:17;9.00;99.90
9399;DHT22;4739;49.334;8.792;2023-03-02T09:52:34;9.20;99.90
9399;DHT22;4739;49.334;8.792;2023-03-02T09:55:15;9.30;99.90
9399;DHT22;4739;49.334;8.792;2023-03-02T09:57:43;9.50;99.90
9399;DHT22;4739;49.334;8.792;2023-03-02T10:00:20;9.70;99.90
9399;DHT22;4739;49.334;8.792;2023-03-02T10:02:51;9.90;99.90
9399;DHT22;4739;49.334;8.792;2023-03-02T10:05:30;9.90;99.90
9399;DHT22;4739;49.334;8.792;2023-03-02T10:07:58;9.80;99.90
9399;DHT22;4739;49.334;8.792;2023-03-02T10:18:27;10.00;99.90
9399;DHT22;4739;49.334;8.792;2023-03-02T10:20:55;9.90;99.90
9399;DHT22;4739;49.334;8.792;2023-03-02T10:26:20;10.20;99.90
9399;DHT22;4739;49.334;8.792;2023-03-02T10:28:49;10.40;99.90
9399;DHT22;4739;49.334;8.792;2023-03-02T10:31:28;10.50;99.90
9399;DHT22;4739;49.334;8.792;2023-03-02T10:33:54;10.50;99.90
9399;DHT22;4739;49.334;8.792;2023-03-02T10:36:36;10.80;99.90
9399;DHT22;4739;49.334;8.792;2023-03-02T10:39:06;10.90;99.90
9399;DHT22;4739;49.334;8.792;2023-03-02T10:46:45;10.80;99.90
9399;DHT22;4739;49.334;8.792;2023-03-02T10:51:59;11.20;99.90
9399;DHT22;4739;49.334;8.792;2023-03-02T10:54:25;11.30;99.90
9399;DHT22;4739;49.334;8.792;2023-03-02T10:56:55;11.30;99.90
9399;DHT22;4739;49.334;8.792;2023-03-02T11:02:01;11.60;99.90
9399;DHT22;4739;49.334;8.792;2023-03-02T11:04:28;11.60;99.90
9399;DHT22;4739;49.334;8.792;2023-03-02T11:06:53;11.40;99.90
9399;DHT22;4739;49.334;8.792;2023-03-02T11:09:19;11.70;99.90
9399;DHT22;4739;49.334;8.792;2023-03-02T11:11:53;11.90;99.90
9399;DHT22;4739;49.334;8.792;2023-03-02T11:14:19;12.10;99.90
9399;DHT22;4739;49.334;8.792;2023-03-02T11:16:47;12.10;99.90
9399;DHT22;4739;49.334;8.792;2023-03-02T11:19:33;12.10;99.90
9399;DHT22;4739;49.334;8.792;2023-03-02T11:22:10;12.00;99.90
9399;DHT22;4739;49.334;8.792;2023-03-02T11:24:47;12.20;99.90
9399;DHT22;4739;49.334;8.792;2023-03-02T11:27:22;12.00;99.90
9399;DHT22;4739;49.334;8.792;2023-03-02T11:32:39;12.10;99.90
9399;DHT22;4739;49.334;8.792;2023-03-02T11:35:14;12.20;99.90
9399;DHT22;4739;49.334;8.792;2023-03-02T11:37:52;12.20;99.90
9399;DHT22;4739;49.334;8.792;2023-03-02T11:40:44;12.50;99.90
9399;DHT22;4739;49.334;8.792;2023-03-02T11:43:11;12.50;99.90
9399;DHT22;4739;49.334;8.792;2023-03-02T11:45:44;12.30;99.90
9399;DHT22;4739;49.334;8.792;2023-03-02T11:50:59;12.50;99.90
9399;DHT22;4739;49.334;8.792;2023-03-02T11:53:41;12.40;99.90
9399;DHT22;4739;49.334;8.792;2023-03-02T11:56:08;12.70;99.90
9399;DHT22;4739;49.334;8.792;2023-03-02T11:58:34;12.90;99.90
9399;DHT22;4739;49.334;8.792;2023-03-02T12:01:01;12.90;99.90
9399;DHT22;4739;49.334;8.792;2023-03-02T12:06:32;13.20;99.90
9399;DHT22;4739;49.334;8.792;2023-03-02T12:09:33;13.40;99.90
9399;DHT22;4739;49.334;8.792;2023-03-02T12:14:58;13.70;99.90
9399;DHT22;4739;49.334;8.792;2023-03-02T12:20:21;13.80;99.90
9399;DHT22;4739;49.334;8.792;2023-03-02T12:22:39;13.70;99.90
9399;DHT22;4739;49.334;8.792;2023-03-02T12:27:47;13.80;99.90
9399;DHT22;4739;49.334;8.792;2023-03-02T12:32:45;14.20;99.90
9399;DHT22;4739;49.334;8.792;2023-03-02T12:35:17;13.90;99.90
9399;DHT22;4739;49.334;8.792;2023-03-02T12:38:28;14.00;99.90
9399;DHT22;4739;49.334;8.792;2023-03-02T12:40:58;14.10;99.90
9399;DHT22;4739;49.334;8.792;2023-03-02T12:43:34;14.20;99.90
9399;DHT22;4739;49.334;8.792;2023-03-02T12:48:46;14.50;99.90
9399;DHT22;4739;49.334;8.792;2023-03-02T12:53:46;14.30;99.90
9399;DHT22;4739;49.334;8.792;2023-03-02T12:56:24;14.20;99.90
9399;DHT22;4739;49.334;8.792;2023-03-02T12:58:51;14.30;99.90
9399;DHT22;4739;49.334;8.792;2023-03-02T13:01:25;14.40;99.90
9399;DHT22;4739;49.334;8.792;2023-03-02T13:03:51;14.40;99.90
9399;DHT22;4739;49.334;8.792;2023-03-02T13:06:18;14.50;99.90
9399;DHT22;4739;49.334;8.792;2023-03-02T13:08:46;14.50;99.90
9399;DHT22;4739;49.334;8.792;2023-03-02T13:11:12;14.40;99.90
9399;DHT22;4739;49.334;8.792;2023-03-02T13:13:43;14.70;99.90
9399;DHT22;4739;49.334;8.792;2023-03-02T13:16:22;14.60;99.90
9399;DHT22;4739;49.334;8.792;2023-03-02T13:18:49;14.50;99.90
9399;DHT22;4739;49.334;8.792;2023-03-02T13:21:20;14.50;99.90
9399;DHT22;4739;49.334;8.792;2023-03-02T13:23:50;14.50;99.90
9399;DHT22;4739;49.334;8.792;2023-03-02T13:26:28;14.70;99.90
9399;DHT22;4739;49.334;8.792;2023-03-02T13:29:16;14.90;99.90
9399;DHT22;4739;49.334;8.792;2023-03-02T13:31:46;14.90;99.90
9399;DHT22;4739;49.334;8.792;2023-03-02T13:34:28;14.90;99.90
9399;DHT22;4739;49.334;8.792;2023-03-02T13:36:55;15.10;99.90
9399;DHT22;4739;49.334;8.792;2023-03-02T13:39:27;15.10;99.90
9399;DHT22;4739;49.334;8.792;2023-03-02T13:41:58;15.30;99.90
9399;DHT22;4739;49.334;8.792;2023-03-02T13:44:29;15.00;99.90
9399;DHT22;4739;49.334;8.792;2023-03-02T13:46:56;14.90;99.90
9399;DHT22;4739;49.334;8.792;2023-03-02T13:49:28;15.00;99.90
9399;DHT22;4739;49.334;8.792;2023-03-02T13:52:05;15.20;99.90
9399;DHT22;4739;49.334;8.792;2023-03-02T13:54:36;15.30;99.90
9399;DHT22;4739;49.334;8.792;2023-03-02T13:57:03;15.30;99.90
9399;DHT22;4739;49.334;8.792;2023-03-02T13:59:29;15.10;99.90
9399;DHT22;4739;49.334;8.792;2023-03-02T14:01:59;15.30;99.90
9399;DHT22;4739;49.334;8.792;2023-03-02T14:04:25;16.20;99.90
9399;DHT22;4739;49.334;8.792;2023-03-02T14:06:52;16.70;99.90
9399;DHT22;4739;49.334;8.792;2023-03-02T14:09:18;16.10;99.90
9399;DHT22;4739;49.334;8.792;2023-03-02T14:11:46;15.70;99.90
9399;DHT22;4739;49.334;8.792;2023-03-02T14:14:24;15.60;99.90
9399;DHT22;4739;49.334;8.792;2023-03-02T14:16:51;15.30;99.90
9399;DHT22;4739;49.334;8.792;2023-03-02T14:19:17;15.00;99.90
9399;DHT22;4739;49.334;8.792;2023-03-02T14:21:43;14.70;99.90
9399;DHT22;4739;49.334;8.792;2023-03-02T14:24:09;14.40;99.90
9399;DHT22;4739;49.334;8.792;2023-03-02T14:26:42;14.20;99.90
9399;DHT22;4739;49.334;8.792;2023-03-02T14:29:20;14.40;99.90
9399;DHT22;4739;49.334;8.792;2023-03-02T14:31:46;14.60;99.90
9399;DHT22;4739;49.334;8.792;2023-03-02T14:34:13;14.80;99.90
9399;DHT22;4739;49.334;8.792;2023-03-02T14:36:39;14.60;99.90
9399;DHT22;4739;49.334;8.792;2023-03-02T14:39:20;14.50;99.90
9399;DHT22;4739;49.334;8.792;2023-03-02T14:41:46;14.10;99.90
9399;DHT22;4739;49.334;8.792;2023-03-02T14:44:13;14.30;99.90
9399;DHT22;4739;49.334;8.792;2023-03-02T14:46:39;14.30;99.90
9399;DHT22;4739;49.334;8.792;2023-03-02T14:49:05;14.10;99.90
9399;DHT22;4739;49.334;8.792;2023-03-02T14:51:32;14.00;99.90
9399;DHT22;4739;49.334;8.792;2023-03-02T14:53:59;14.10;99.90
9399;DHT22;4739;49.334;8.792;2023-03-02T14:56:26;14.20;99.90
9399;DHT22;4739;49.334;8.792;2023-03-02T14:58:52;14.30;99.90
9399;DHT22;4739;49.334;8.792;2023-03-02T15:01:19;14.10;99.90
9399;DHT22;4739;49.334;8.792;2023-03-02T15:03:45;14.10;99.90
9399;DHT22;4739;49.334;8.792;2023-03-02T15:06:31;14.20;99.90
9399;DHT22;4739;49.334;8.792;2023-03-02T15:08:58;14.30;99.90
9399;DHT22;4739;49.334;8.792;2023-03-02T15:11:25;14.10;99.90
9399;DHT22;4739;49.334;8.792;2023-03-02T15:13:51;13.70;99.90
9399;DHT22;4739;49.334;8.792;2023-03-02T15:16:17;13.60;99.90
9399;DHT22;4739;49.334;8.792;2023-03-02T15:18:43;13.60;99.90
9399;DHT22;4739;49.334;8.792;2023-03-02T15:21:14;13.40;99.90
9399;DHT22;4739;49.334;8.792;2023-03-02T15:23:40;13.60;99.90
9399;DHT22;4739;49.334;8.792;2023-03-02T15:26:06;13.50;99.90
9399;DHT22;4739;49.334;8.792;2023-03-02T15:28:31;13.20;99.90
9399;DHT22;4739;49.334;8.792;2023-03-02T15:31:04;13.20;99.90
9399;DHT22;4739;49.334;8.792;2023-03-02T15:33:30;13.10;99.90
9399;DHT22;4739;49.334;8.792;2023-03-02T15:35:55;13.00;99.90
9399;DHT22;4739;49.334;8.792;2023-03-02T15:38:21;13.00;99.90
9399;DHT22;4739;49.334;8.792;2023-03-02T15:40:46;13.10;99.90
9399;DHT22;4739;49.334;8.792;2023-03-02T15:43:12;13.00;99.90
9399;DHT22;4739;49.334;8.792;2023-03-02T15:45:43;12.90;99.90
9399;DHT22;4739;49.334;8.792;2023-03-02T15:48:09;12.70;99.90
9399;DHT22;4739;49.334;8.792;2023-03-02T15:50:34;12.60;99.90
9399;DHT22;4739;49.334;8.792;2023-03-02T15:53:00;12.40;99.90
9399;DHT22;4739;49.334;8.792;2023-03-02T15:55:25;12.30;99.90
9399;DHT22;4739;49.334;8.792;2023-03-02T15:57:51;12.20;99.90
9399;DHT22;4739;49.334;8.792;2023-03-02T16:00:17;12.00;99.90
9399;DHT22;4739;49.334;8.792;2023-03-02T16:02:43;11.80;99.90
9399;DHT22;4739;49.334;8.792;2023-03-02T16:05:08;11.80;99.90
9399;DHT22;4739;49.334;8.792;2023-03-02T16:07:34;11.70;99.90
9399;DHT22;4739;49.334;8.792;2023-03-02T16:10:02;11.80;99.90
9399;DHT22;4739;49.334;8.792;2023-03-02T16:12:27;11.70;99.90
9399;DHT22;4739;49.334;8.792;2023-03-02T16:14:53;11.70;99.90
9399;DHT22;4739;49.334;8.792;2023-03-02T16:17:18;11.70;99.90
9399;DHT22;4739;49.334;8.792;2023-03-02T16:19:44;11.70;99.90
9399;DHT22;4739;49.334;8.792;2023-03-02T16:22:10;11.60;99.90
9399;DHT22;4739;49.334;8.792;2023-03-02T16:24:36;11.50;99.90
9399;DHT22;4739;49.334;8.792;2023-03-02T16:27:01;11.40;99.90
9399;DHT22;4739;49.334;8.792;2023-03-02T16:29:27;11.30;99.90
9399;DHT22;4739;49.334;8.792;2023-03-02T16:31:53;11.10;99.90
9399;DHT22;4739;49.334;8.792;2023-03-02T16:34:19;11.00;99.90
9399;DHT22;4739;49.334;8.792;2023-03-02T16:36:44;10.80;99.90
9399;DHT22;4739;49.334;8.792;2023-03-02T16:39:12;10.60;99.90
9399;DHT22;4739;49.334;8.792;2023-03-02T16:41:39;10.40;99.90
9399;DHT22;4739;49.334;8.792;2023-03-02T16:44:06;10.10;99.90
9399;DHT22;4739;49.334;8.792;2023-03-02T16:46:33;9.90;99.90
9399;DHT22;4739;49.334;8.792;2023-03-02T16:49:01;9.90;99.90
9399;DHT22;4739;49.334;8.792;2023-03-02T16:53:58;9.60;99.90
9399;DHT22;4739;49.334;8.792;2023-03-02T16:56:24;9.40;99.90
9399;DHT22;4739;49.334;8.792;2023-03-02T16:58:49;9.30;99.90
9399;DHT22;4739;49.334;8.792;2023-03-02T17:01:18;9.10;99.90
9399;DHT22;4739;49.334;8.792;2023-03-02T17:03:45;8.90;99.90
9399;DHT22;4739;49.334;8.792;2023-03-02T17:06:13;8.70;99.90
9399;DHT22;4739;49.334;8.792;2023-03-02T17:08:39;8.60;99.90
9399;DHT22;4739;49.334;8.792;2023-03-02T17:11:05;8.50;99.90
9399;DHT22;4739;49.334;8.792;2023-03-02T17:13:31;8.40;99.90
9399;DHT22;4739;49.334;8.792;2023-03-02T17:15:57;8.20;99.90
9399;DHT22;4739;49.334;8.792;2023-03-02T17:18:23;8.00;99.90
9399;DHT22;4739;49.334;8.792;2023-03-02T17:20:52;7.90;99.90
9399;DHT22;4739;49.334;8.792;2023-03-02T17:23:18;7.80;99.90
9399;DHT22;4739;49.334;8.792;2023-03-02T17:25:44;7.70;99.90